Vannes, Francia

2:18 PM CEST en Septiembre 23, 2014 (GMT +0200)
Saint - Armel | Change Station
CLOSE
Current Station
Estación meteorológica personal
Location: Saint - Armel, 56450, BRETAGNE
Altura: 11 ft
Estaciones meteorológicas cercanas

Alt 11 ft 47.58 °N, 2.71 °W | Updated 8 seconds ago

Clear
Despejado
65.5 ° F
Sensación térmica 65.5 ° F
N
6.9
Viento Variable Viento desde ENE
Gusts 10.3 mph

Hoy
Alta -- | Baja -- ° F
--% Posibilidad de precipitaciones
Ayer
Alta -- | Baja -- ° F
Precip. -- pul
7:58 AM 8:07 PM
Creciente menguante, 1% visible
Presión 30.12 pul
Visibilidad 5.0 Millas
Nubes
Punto de rocío 44 ° F
Humedad 46%
Precipitaciones 0.00 pul
Espesor de la nieve No disponible.
UV No disponible.
Polen No disponible.
Calidad del aire No disponible.
Flu Activity No disponible.
METAR LFRV 231200Z AUTO 06009KT 030V090 8000 NSC 18/08 Q1020

More Conditions Fewer Conditions

Presión 30.12 pul
Visibilidad 5.0 Millas
Nubes
Punto de rocío 44 ° F
Humedad 46%
Precipitaciones 0.00 pul
Espesor de la nieve No disponible.
UV No disponible.
Polen No disponible.
Calidad del aire No disponible.
Flu Activity No disponible.
METAR LFRV 231200Z AUTO 06009KT 030V090 8000 NSC 18/08 Q1020

More Conditions Fewer Conditions

10-Day Weather Forecast

Almanac

Astronomía

Sep. 23, 2014 Salida Puesta
Hora real 7:58 AM CEST 8:07 PM CEST
Crepúsculo civil 7:28 AM CEST 8:37 PM CEST
Crepúsculo náutico 6:51 AM CEST 9:13 PM CEST
Crepúsculo astronómico 6:14 AM CEST 9:51 PM CEST
Luna 7:07 AM CEST 7:38 PM CEST
Horas de luz 13h 09m
Horas de luz
12h 08m
Tomorrow will be 3m 24s shorter.
Creciente menguante, 1% of the Moon is Illuminated
Hoy
Creciente menguante
Sep 24
Nueva
Oct 1
Cuarto creciente
Oct 8
Luna llena
Oct 15
Cuarto menguante

Extremos de ayer

Máximos del país Bajas del país

Community

WunderPhotos

Upload Photos

1,755,659 ¡fotos cargadas!

WunderBlogs® & News

Nearby

Calidad del aire

Not available.

Grosos de nieve

Not available.

Actividad de terremotos

Ciudad Distance Mag. Tiempo y dato
No hay informes recientes de la actividad sísmica.
Magnitud mínima muestra es 2,5.

Temperaturas de aguas costeras

Lugar Temperatura
Sin partes meteorológicos de las estaciones

Estaciones meteorológicas cercanas